Time;durP1;ratioP1;P1;durP2;ratioP2;P2;SDS_P1;SDS_P2;PMS_P1;PMS_P2;Temp;Humidity;BMP_temperature;BMP_pressure;BME280_temperature;BME280_humidity;BME280_pressure;Samples;Min_cycle;Max_cycle;Signal;HPM_P1;HPM_P2
2023/02/08 00:00:09;;;;;;;;;;;3.30;97.00;4.00;101067.00;;;;341595;28;88258;-94
2023/02/08 00:00:22;;;;;;;;;;;3.30;97.10;3.90;101071.00;;;;345968;28;83369;-93
2023/02/08 00:00:34;;;;;;;;;;;3.30;97.00;3.90;101057.00;;;;344305;28;88763;-93
2023/02/08 00:00:45;;;;;;;;;;;3.30;97.00;3.90;101067.00;;;;344754;28;82488;-94
2023/02/08 00:00:57;;;;;;;;;;;3.30;97.00;3.80;101076.00;;;;345577;28;89582;-93
2023/02/08 00:01:10;;;;;;;;;;;3.30;97.10;3.80;101061.00;;;;345558;28;83618;-94
2023/02/08 00:01:22;;;;;;;;;;;3.30;97.10;3.80;101070.00;;;;344158;28;89597;-93
2023/02/08 00:01:34;;;;;;;;;;;3.30;97.10;3.80;101066.00;;;;347263;28;82549;-93
2023/02/08 00:01:46;;;;;;;;;;;3.30;97.10;3.90;101058.00;;;;346846;28;90889;-93
2023/02/08 00:01:58;;;;;;;;;;;3.30;97.10;3.90;101064.00;;;;343123;28;83653;-95
2023/02/08 00:02:10;;;;;;;;;;;3.30;97.10;3.90;101067.00;;;;343849;28;91010;-94
2023/02/08 00:02:21;;;;;;;;;;;3.30;97.10;3.90;101070.00;;;;344751;28;82424;-95
2023/02/08 00:02:33;;;;;;;;;;;3.30;97.10;3.90;101069.00;;;;347121;28;89305;-94
2023/02/08 00:02:45;;;;;;;;;;;3.20;97.00;3.90;101067.00;;;;344740;28;82492;-94
2023/02/08 00:02:57;;;;;;;;;;;3.30;97.00;4.00;101066.00;;;;344283;28;89153;-94
2023/02/08 00:03:09;;;;;;;;;;;3.20;97.10;4.00;101058.00;;;;347496;28;83441;-94
2023/02/08 00:03:21;;;;;;;;;;;3.20;97.10;4.00;101066.00;;;;345805;28;88113;-94
2023/02/08 00:03:32;;;;;;;;;;;3.30;97.10;4.10;101063.00;;;;345666;28;83621;-94
2023/02/08 00:03:44;;;;;;;;;;;3.30;97.20;4.00;101057.00;;;;345391;28;89831;-94
2023/02/08 00:03:56;;;;;;;;;;;3.30;97.10;4.00;101063.00;;;;346118;28;83513;-95
2023/02/08 00:04:08;;;;;;;;;;;3.30;97.10;4.00;101054.00;;;;347022;28;91623;-93
2023/02/08 00:04:20;;;;;;;;;;;3.30;97.10;3.90;101055.00;;;;344555;28;83391;-94
2023/02/08 00:04:32;;;;;;;;;;;3.30;97.20;4.00;101059.00;;;;344121;28;91646;-95
2023/02/08 00:04:44;;;;;;;;;;;3.20;97.10;4.00;101063.00;;;;343415;28;83280;-95
2023/02/08 00:04:55;;;;;;;;;;;3.30;97.20;4.00;101060.00;;;;345266;28;88534;-95
2023/02/08 00:05:07;;;;;;;;;;;3.30;97.20;3.90;101060.00;;;;343337;28;83514;-95
2023/02/08 00:05:19;;;;;;;;;;;3.20;97.20;4.00;101060.00;;;;345502;28;89658;-95
2023/02/08 00:05:31;;;;;;;;;;;3.30;97.20;4.10;101063.00;;;;343426;28;83298;-94
2023/02/08 00:05:43;;;;;;;;;;;3.30;97.20;4.10;101069.00;;;;344340;28;89541;-95
2023/02/08 00:05:54;;;;;;;;;;;3.30;97.30;3.90;101064.00;;;;343391;28;82282;-95
2023/02/08 00:06:07;;;;;;;;;;;3.30;97.30;3.90;101069.00;;;;344286;28;88390;-95
2023/02/08 00:06:19;;;;;;;;;;;3.30;97.30;3.80;101063.00;;;;343452;28;83350;-94
2023/02/08 00:06:30;;;;;;;;;;;3.30;97.30;3.70;101062.00;;;;344065;28;91055;-94
2023/02/08 00:06:42;;;;;;;;;;;3.20;97.30;3.80;101064.00;;;;343321;28;83569;-95
2023/02/08 00:06:54;;;;;;;;;;;3.20;97.30;3.90;101064.00;;;;343907;28;91976;-95
2023/02/08 00:07:06;;;;;;;;;;;3.20;97.30;3.90;101062.00;;;;344779;28;83291;-95
2023/02/08 00:07:18;;;;;;;;;;;3.20;97.40;3.90;101061.00;;;;345429;28;89425;-95
2023/02/08 00:07:30;;;;;;;;;;;3.20;97.40;4.00;101060.00;;;;343411;28;83399;-95
2023/02/08 00:07:41;;;;;;;;;;;3.20;97.40;3.90;101068.00;;;;342735;28;90478;-95
2023/02/08 00:07:53;;;;;;;;;;;3.20;97.40;3.90;101062.00;;;;343489;28;82412;-95
2023/02/08 00:08:05;;;;;;;;;;;3.20;97.40;3.90;101062.00;;;;342532;28;90428;-95
2023/02/08 00:08:17;;;;;;;;;;;3.20;97.40;3.80;101059.00;;;;343439;28;83335;-95
2023/02/08 00:08:29;;;;;;;;;;;3.20;97.30;3.80;101062.00;;;;341645;28;88922;-94
2023/02/08 00:08:41;;;;;;;;;;;3.20;97.40;3.80;101070.00;;;;343182;28;83496;-95
2023/02/08 00:08:53;;;;;;;;;;;3.20;97.30;3.90;101064.00;;;;346712;28;90732;-95
2023/02/08 00:09:06;;;;;;;;;;;3.20;97.30;3.80;101064.00;;;;346723;28;82573;-95
2023/02/08 00:09:17;;;;;;;;;;;3.20;97.30;3.80;101060.00;;;;341686;28;89377;-94
2023/02/08 00:09:29;;;;;;;;;;;3.20;97.30;3.80;101060.00;;;;346119;28;83226;-95
2023/02/08 00:09:41;;;;;;;;;;;3.20;97.30;3.80;101066.00;;;;345625;28;88111;-94
2023/02/08 00:09:53;;;;;;;;;;;3.20;97.40;3.80;101056.00;;;;346065;28;82142;-95
2023/02/08 00:10:05;;;;;;;;;;;3.20;97.40;3.80;101061.00;;;;343112;28;88030;-94
2023/02/08 00:10:17;;;;;;;;;;;3.20;97.30;3.80;101065.00;;;;343339;28;83697;-95
2023/02/08 00:10:29;;;;;;;;;;;3.20;97.40;3.70;101061.00;;;;344322;28;89966;-95
2023/02/08 00:10:41;;;;;;;;;;;3.20;97.50;3.60;101061.00;;;;346003;28;82582;-94
2023/02/08 00:10:54;;;;;;;;;;;3.10;97.60;3.60;101066.00;;;;344384;28;86621;-94
2023/02/08 00:11:06;;;;;;;;;;;3.10;97.60;3.60;101063.00;;;;344585;28;83246;-95
2023/02/08 00:11:17;;;;;;;;;;;3.10;97.60;3.70;101063.00;;;;345400;28;91420;-94
2023/02/08 00:11:29;;;;;;;;;;;3.10;97.60;3.70;101059.00;;;;344526;28;82605;-95
2023/02/08 00:11:41;;;;;;;;;;;3.10;97.60;3.70;101068.00;;;;344077;28;91584;-95
2023/02/08 00:11:53;;;;;;;;;;;3.10;97.50;3.80;101051.00;;;;343151;28;82564;-95
2023/02/08 00:12:05;;;;;;;;;;;3.10;97.60;3.90;101064.00;;;;343108;28;88379;-95
2023/02/08 00:12:17;;;;;;;;;;;3.10;97.60;3.80;101062.00;;;;344772;28;83281;-95
2023/02/08 00:12:28;;;;;;;;;;;3.10;97.60;3.80;101055.00;;;;344296;28;91352;-95
2023/02/08 00:12:40;;;;;;;;;;;3.10;97.60;3.80;101060.00;;;;343706;28;82177;-94
2023/02/08 00:12:52;;;;;;;;;;;3.10;97.60;3.70;101063.00;;;;343043;28;89700;-94
2023/02/08 00:13:04;;;;;;;;;;;3.10;97.60;3.60;101052.00;;;;346023;28;82579;-95
2023/02/08 00:13:15;;;;;;;;;;;3.10;97.60;3.60;101054.00;;;;344222;28;91164;-95
2023/02/08 00:13:27;;;;;;;;;;;3.10;97.60;3.50;101051.00;;;;344264;28;83589;-95
2023/02/08 00:13:40;;;;;;;;;;;3.10;97.60;3.60;101053.00;;;;343106;28;89020;-95
2023/02/08 00:13:52;;;;;;;;;;;3.10;97.70;3.80;101060.00;;;;345016;28;83394;-95
2023/02/08 00:14:04;;;;;;;;;;;3.10;97.70;3.80;101058.00;;;;345643;28;90352;-95
2023/02/08 00:14:16;;;;;;;;;;;3.10;97.70;3.80;101051.00;;;;343384;28;84027;-94
2023/02/08 00:14:28;;;;;;;;;;;3.10;97.80;3.70;101058.00;;;;342666;28;90372;-94
2023/02/08 00:14:40;;;;;;;;;;;3.10;97.70;3.60;101056.00;;;;345971;28;83328;-94
2023/02/08 00:14:51;;;;;;;;;;;3.10;97.70;3.70;101057.00;;;;345356;28;88391;-94
2023/02/08 00:15:04;;;;;;;;;;;3.10;97.60;3.70;101056.00;;;;345924;28;83547;-95
2023/02/08 00:15:18;;;;;;;;;;;3.10;97.60;3.70;101055.00;;;;342989;28;88344;-95
2023/02/08 00:15:31;;;;;;;;;;;3.10;97.60;3.70;101048.00;;;;343471;28;83333;-94
2023/02/08 00:15:43;;;;;;;;;;;3.10;97.60;3.70;101052.00;;;;345473;28;90298;-95
2023/02/08 00:15:55;;;;;;;;;;;3.10;97.60;3.80;101051.00;;;;344787;28;82269;-95
2023/02/08 00:16:07;;;;;;;;;;;3.10;97.70;3.80;101050.00;;;;343001;28;89511;-95
2023/02/08 00:16:19;;;;;;;;;;;3.10;97.70;3.70;101049.00;;;;344598;28;83542;-94
2023/02/08 00:16:30;;;;;;;;;;;3.10;97.80;3.80;101055.00;;;;344782;28;89432;-94
2023/02/08 00:16:42;;;;;;;;;;;3.10;97.80;3.90;101047.00;;;;343258;28;83505;-94
2023/02/08 00:16:54;;;;;;;;;;;3.10;97.80;3.90;101048.00;;;;344322;28;89407;-94
2023/02/08 00:17:06;;;;;;;;;;;3.10;97.70;3.80;101050.00;;;;343463;28;82490;-94
2023/02/08 00:17:18;;;;;;;;;;;3.10;97.70;3.70;101053.00;;;;342918;28;89601;-94
2023/02/08 00:17:30;;;;;;;;;;;3.10;97.80;3.70;101057.00;;;;344982;28;82337;-95
2023/02/08 00:17:42;;;;;;;;;;;3.10;97.80;3.80;101053.00;;;;345668;28;89185;-95
2023/02/08 00:17:54;;;;;;;;;;;3.00;97.70;3.70;101045.00;;;;345806;28;82581;-95
2023/02/08 00:18:06;;;;;;;;;;;3.10;97.80;3.70;101045.00;;;;343203;28;88474;-95
2023/02/08 00:18:18;;;;;;;;;;;3.00;97.70;3.60;101050.00;;;;347437;28;83552;-95
2023/02/08 00:18:29;;;;;;;;;;;3.10;97.80;3.80;101049.00;;;;344237;28;92170;-94
2023/02/08 00:18:41;;;;;;;;;;;3.00;97.80;3.80;101050.00;;;;346401;28;83481;-95
2023/02/08 00:18:53;;;;;;;;;;;3.10;97.80;3.80;101052.00;;;;347434;28;87117;-94
2023/02/08 00:19:05;;;;;;;;;;;3.10;97.80;3.80;101050.00;;;;347603;28;83325;-95
2023/02/08 00:19:16;;;;;;;;;;;3.10;97.80;3.80;101045.00;;;;345877;28;91550;-95
2023/02/08 00:19:28;;;;;;;;;;;3.10;97.80;3.70;101053.00;;;;345062;28;83088;-94
2023/02/08 00:19:40;;;;;;;;;;;3.10;97.70;3.60;101053.00;;;;344482;28;89438;-94
2023/02/08 00:19:52;;;;;;;;;;;3.00;97.70;3.70;101049.00;;;;344996;28;83343;-94
2023/02/08 00:20:04;;;;;;;;;;;3.00;97.70;3.70;101048.00;;;;344606;28;90315;-95
2023/02/08 00:20:16;;;;;;;;;;;3.00;97.70;3.70;101047.00;;;;345035;28;82493;-94
2023/02/08 00:20:28;;;;;;;;;;;3.00;97.70;3.70;101049.00;;;;345976;28;88446;-93
2023/02/08 00:20:40;;;;;;;;;;;3.10;97.70;3.70;101045.00;;;;343317;28;83544;-94
2023/02/08 00:20:54;;;;;;;;;;;3.00;97.60;3.60;101047.00;;;;345903;28;89277;-94
2023/02/08 00:21:08;;;;;;;;;;;3.00;97.70;3.70;101052.00;;;;344809;28;82532;-94
2023/02/08 00:21:20;;;;;;;;;;;3.00;97.80;3.60;101042.00;;;;343797;28;89738;-94
2023/02/08 00:21:31;;;;;;;;;;;3.00;97.90;3.70;101043.00;;;;342030;28;83247;-92
2023/02/08 00:21:43;;;;;;;;;;;3.00;97.90;3.70;101042.00;;;;346869;28;89268;-94
2023/02/08 00:21:55;;;;;;;;;;;3.00;97.90;3.70;101046.00;;;;344911;28;82402;-94
2023/02/08 00:22:07;;;;;;;;;;;3.00;97.90;3.60;101038.00;;;;344309;28;89224;-95
2023/02/08 00:22:18;;;;;;;;;;;3.00;97.80;3.60;101048.00;;;;344493;28;83538;-94
2023/02/08 00:22:30;;;;;;;;;;;3.00;97.80;3.60;101043.00;;;;344383;28;88717;-94
2023/02/08 00:22:42;;;;;;;;;;;3.00;97.80;3.70;101038.00;;;;344804;28;83368;-95
2023/02/08 00:22:54;;;;;;;;;;;3.00;97.80;3.80;101042.00;;;;344361;28;89420;-94
2023/02/08 00:23:06;;;;;;;;;;;3.00;97.80;3.80;101044.00;;;;343468;28;83413;-94
2023/02/08 00:23:18;;;;;;;;;;;3.00;97.90;3.80;101047.00;;;;342968;28;89129;-94
2023/02/08 00:23:30;;;;;;;;;;;3.00;97.80;3.70;101041.00;;;;343455;28;82277;-94
2023/02/08 00:23:41;;;;;;;;;;;3.00;97.80;3.60;101042.00;;;;344274;28;88188;-94
2023/02/08 00:23:53;;;;;;;;;;;3.00;97.80;3.70;101048.00;;;;343009;28;83353;-94
2023/02/08 00:24:05;;;;;;;;;;;3.00;97.80;3.60;101047.00;;;;341576;28;89225;-93
2023/02/08 00:24:24;;;;;;;;;;;3.00;98.20;3.70;101043.00;;;;344538;28;83447;-93
2023/02/08 00:24:36;;;;;;;;;;;3.00;97.90;3.70;101047.00;;;;345389;28;93025;-94
2023/02/08 00:24:48;;;;;;;;;;;3.00;97.80;3.70;101037.00;;;;343112;28;83493;-94
2023/02/08 00:25:00;;;;;;;;;;;3.00;97.80;3.60;101034.00;;;;344318;28;89509;-94
2023/02/08 00:25:12;;;;;;;;;;;3.00;97.70;3.70;101036.00;;;;344629;28;82581;-94
2023/02/08 00:25:24;;;;;;;;;;;3.00;97.70;3.70;101043.00;;;;342978;28;89168;-94
2023/02/08 00:25:36;;;;;;;;;;;3.00;97.70;3.70;101048.00;;;;344414;28;82428;-92
2023/02/08 00:25:47;;;;;;;;;;;3.00;97.70;3.60;101040.00;;;;345726;28;89148;-93
2023/02/08 00:25:59;;;;;;;;;;;3.00;97.70;3.60;101044.00;;;;344759;28;82485;-94
2023/02/08 00:26:11;;;;;;;;;;;3.00;97.80;3.50;101045.00;;;;344342;28;89011;-93
2023/02/08 00:26:23;;;;;;;;;;;3.00;97.80;3.60;101044.00;;;;343103;28;82646;-94
2023/02/08 00:26:35;;;;;;;;;;;3.00;97.80;3.60;101034.00;;;;345424;28;91459;-93
2023/02/08 00:26:46;;;;;;;;;;;3.00;97.80;3.70;101042.00;;;;345898;28;82519;-93
2023/02/08 00:26:58;;;;;;;;;;;3.00;97.80;3.70;101046.00;;;;344237;28;89113;-93
2023/02/08 00:27:10;;;;;;;;;;;3.00;97.80;3.70;101044.00;;;;344750;28;82311;-93
2023/02/08 00:27:22;;;;;;;;;;;3.00;97.70;3.70;101035.00;;;;344231;28;88968;-94
2023/02/08 00:27:33;;;;;;;;;;;3.00;97.80;3.70;101043.00;;;;346080;28;83087;-94
2023/02/08 00:27:45;;;;;;;;;;;3.00;97.80;3.70;101038.00;;;;341498;28;89641;-94
2023/02/08 00:27:57;;;;;;;;;;;3.00;97.90;3.70;101037.00;;;;344668;28;82393;-94
2023/02/08 00:28:12;;;;;;;;;;;3.00;97.90;3.80;101038.00;;;;345695;28;87610;-94
2023/02/08 00:28:23;;;;;;;;;;;3.00;97.90;3.80;101041.00;;;;347128;28;83541;-93
2023/02/08 00:28:35;;;;;;;;;;;3.00;98.00;3.80;101044.00;;;;345755;28;89305;-93
2023/02/08 00:28:47;;;;;;;;;;;3.00;98.00;3.80;101037.00;;;;344566;28;83376;-93
2023/02/08 00:28:59;;;;;;;;;;;3.00;98.00;3.90;101038.00;;;;345326;28;90531;-93
2023/02/08 00:29:10;;;;;;;;;;;3.00;98.00;3.90;101034.00;;;;346069;28;83468;-93
2023/02/08 00:29:22;;;;;;;;;;;3.00;98.00;3.90;101042.00;;;;345368;28;89924;-93
2023/02/08 00:29:34;;;;;;;;;;;3.00;98.00;3.80;101043.00;;;;343384;28;83185;-93
2023/02/08 00:29:46;;;;;;;;;;;3.00;98.00;3.90;101032.00;;;;341521;28;88014;-93
2023/02/08 00:29:58;;;;;;;;;;;3.00;98.00;3.90;101040.00;;;;343434;28;82314;-93
2023/02/08 00:30:10;;;;;;;;;;;3.10;98.00;3.90;101036.00;;;;344295;28;87668;-94
2023/02/08 00:30:22;;;;;;;;;;;3.10;98.00;4.00;101035.00;;;;343371;28;82516;-93
2023/02/08 00:30:36;;;;;;;;;;;3.10;98.00;3.90;101039.00;;;;345369;28;90569;-94
2023/02/08 00:30:48;;;;;;;;;;;3.00;98.00;3.80;101038.00;;;;346116;28;83412;-94
2023/02/08 00:31:00;;;;;;;;;;;3.10;97.90;3.80;101036.00;;;;343814;28;90846;-94
2023/02/08 00:31:12;;;;;;;;;;;3.10;97.90;3.70;101035.00;;;;345946;28;83535;-94
2023/02/08 00:31:24;;;;;;;;;;;3.10;97.90;3.70;101035.00;;;;342889;28;89491;-94
2023/02/08 00:31:36;;;;;;;;;;;3.10;97.90;3.60;101043.00;;;;345894;28;83264;-94
2023/02/08 00:31:48;;;;;;;;;;;3.10;98.00;3.70;101033.00;;;;344261;28;89541;-94
2023/02/08 00:32:00;;;;;;;;;;;3.10;98.00;3.90;101033.00;;;;343409;28;82477;-95
2023/02/08 00:32:11;;;;;;;;;;;3.10;98.00;3.90;101034.00;;;;341625;28;88671;-93
2023/02/08 00:32:23;;;;;;;;;;;3.10;98.00;3.90;101037.00;;;;343449;28;82340;-95
2023/02/08 00:32:35;;;;;;;;;;;3.10;98.00;3.90;101038.00;;;;344313;28;90198;-94
2023/02/08 00:32:47;;;;;;;;;;;3.10;97.90;3.80;101039.00;;;;343330;28;83337;-95
2023/02/08 00:33:00;;;;;;;;;;;3.10;97.90;3.70;101032.00;;;;343960;28;90535;-94
2023/02/08 00:33:12;;;;;;;;;;;3.10;97.90;3.60;101027.00;;;;343350;28;83359;-94
2023/02/08 00:33:23;;;;;;;;;;;3.10;97.80;3.70;101037.00;;;;344520;28;87800;-94
2023/02/08 00:33:36;;;;;;;;;;;3.10;97.90;3.80;101041.00;;;;344700;28;83347;-95
2023/02/08 00:33:47;;;;;;;;;;;3.10;97.90;3.80;101037.00;;;;344284;28;87518;-94
2023/02/08 00:33:59;;;;;;;;;;;3.10;97.90;3.80;101035.00;;;;343219;28;82626;-94
2023/02/08 00:34:11;;;;;;;;;;;3.10;98.00;3.80;101039.00;;;;344270;28;89004;-94
2023/02/08 00:34:23;;;;;;;;;;;3.10;98.00;3.80;101035.00;;;;344509;28;82401;-94
2023/02/08 00:34:36;;;;;;;;;;;3.10;98.00;3.80;101028.00;;;;342871;28;89214;-95
2023/02/08 00:34:48;;;;;;;;;;;3.10;98.00;3.80;101036.00;;;;344703;28;83572;-93
2023/02/08 00:34:59;;;;;;;;;;;3.10;98.00;3.90;101032.00;;;;343859;28;88517;-95
2023/02/08 00:35:11;;;;;;;;;;;3.10;98.00;3.90;101032.00;;;;343143;28;82483;-94
2023/02/08 00:35:23;;;;;;;;;;;3.10;98.00;3.90;101034.00;;;;341245;28;90509;-93
2023/02/08 00:35:35;;;;;;;;;;;3.10;97.90;3.90;101035.00;;;;344303;28;82637;-94
2023/02/08 00:35:47;;;;;;;;;;;3.10;97.90;3.80;101035.00;;;;342947;28;88021;-94
2023/02/08 00:35:59;;;;;;;;;;;3.10;97.80;3.90;101027.00;;;;347281;28;83402;-94
2023/02/08 00:36:11;;;;;;;;;;;3.10;97.80;3.90;101033.00;;;;345670;28;88285;-94
2023/02/08 00:36:23;;;;;;;;;;;3.10;97.70;3.90;101026.00;;;;346129;28;82441;-95
2023/02/08 00:36:35;;;;;;;;;;;3.10;97.70;3.80;101030.00;;;;347033;28;89984;-95
2023/02/08 00:36:46;;;;;;;;;;;3.10;97.70;3.80;101032.00;;;;344405;28;83121;-96
2023/02/08 00:36:58;;;;;;;;;;;3.10;97.70;3.70;101032.00;;;;344123;28;90033;-95
2023/02/08 00:37:10;;;;;;;;;;;3.10;97.80;3.70;101037.00;;;;344680;28;82613;-94
2023/02/08 00:37:22;;;;;;;;;;;3.10;97.80;3.80;101034.00;;;;342705;28;91141;-94
2023/02/08 00:37:34;;;;;;;;;;;3.10;97.80;3.80;101027.00;;;;346026;28;83218;-94
2023/02/08 00:37:45;;;;;;;;;;;3.10;97.80;3.90;101035.00;;;;345755;28;88054;-95
2023/02/08 00:37:57;;;;;;;;;;;3.10;97.80;3.80;101029.00;;;;345967;28;82725;-94
2023/02/08 00:38:09;;;;;;;;;;;3.10;97.90;3.80;101036.00;;;;345674;28;88540;-94
2023/02/08 00:38:21;;;;;;;;;;;3.10;97.80;3.80;101028.00;;;;347127;28;83552;-94
2023/02/08 00:38:32;;;;;;;;;;;3.10;97.80;3.80;101029.00;;;;345648;28;90212;-94
2023/02/08 00:38:44;;;;;;;;;;;3.10;97.80;3.80;101024.00;;;;343431;28;83322;-95
2023/02/08 00:38:56;;;;;;;;;;;3.10;97.80;3.70;101032.00;;;;342940;28;89089;-94
2023/02/08 00:39:08;;;;;;;;;;;3.10;97.80;3.60;101027.00;;;;342082;28;83205;-94
2023/02/08 00:39:20;;;;;;;;;;;3.10;97.90;3.80;101034.00;;;;341526;28;89453;-94
2023/02/08 00:39:32;;;;;;;;;;;3.10;97.90;3.80;101029.00;;;;344388;28;83365;-93
2023/02/08 00:39:43;;;;;;;;;;;3.00;97.90;3.70;101027.00;;;;344316;28;89467;-94
2023/02/08 00:39:57;;;;;;;;;;;3.10;97.90;3.70;101028.00;;;;346270;28;82151;-94
2023/02/08 00:40:10;;;;;;;;;;;3.10;97.90;3.80;101027.00;;;;343027;28;86652;-94
2023/02/08 00:40:22;;;;;;;;;;;3.10;97.90;3.70;101028.00;;;;344511;28;83120;-94
2023/02/08 00:40:34;;;;;;;;;;;3.10;97.90;3.70;101024.00;;;;345270;28;91496;-93
2023/02/08 00:40:46;;;;;;;;;;;3.00;97.90;3.70;101028.00;;;;345955;28;82457;-94
2023/02/08 00:40:57;;;;;;;;;;;3.10;97.90;3.80;101034.00;;;;345633;28;89427;-94
2023/02/08 00:41:09;;;;;;;;;;;3.10;98.00;3.80;101029.00;;;;346190;28;82445;-95
2023/02/08 00:41:21;;;;;;;;;;;3.00;97.90;3.90;101034.00;;;;345678;28;89339;-94
2023/02/08 00:41:33;;;;;;;;;;;3.10;97.90;3.80;101025.00;;;;344691;28;83426;-94
2023/02/08 00:41:45;;;;;;;;;;;3.00;97.90;3.60;101022.00;;;;344098;28;90739;-94
2023/02/08 00:41:57;;;;;;;;;;;3.00;98.00;3.60;101027.00;;;;343326;28;83270;-93
2023/02/08 00:42:08;;;;;;;;;;;3.00;98.00;3.60;101031.00;;;;345505;28;89057;-94
2023/02/08 00:42:20;;;;;;;;;;;3.00;98.00;3.70;101025.00;;;;343396;28;82521;-93
2023/02/08 00:42:32;;;;;;;;;;;3.00;98.10;3.70;101022.00;;;;342523;28;89057;-94
2023/02/08 00:42:44;;;;;;;;;;;3.10;98.20;3.60;101033.00;;;;347643;28;82234;-93
2023/02/08 00:42:56;;;;;;;;;;;3.00;98.10;3.70;101028.00;;;;346967;28;88820;-94
2023/02/08 00:43:07;;;;;;;;;;;3.00;98.10;3.70;101029.00;;;;344714;28;83575;-95
2023/02/08 00:43:19;;;;;;;;;;;3.00;98.20;3.60;101030.00;;;;344012;28;91883;-93
2023/02/08 00:43:31;;;;;;;;;;;3.00;98.20;3.60;101032.00;;;;343352;28;83242;-92
2023/02/08 00:43:43;;;;;;;;;;;3.00;98.20;3.60;101027.00;;;;343010;28;88090;-94
2023/02/08 00:43:55;;;;;;;;;;;3.00;98.20;3.50;101028.00;;;;343404;28;83514;-93
2023/02/08 00:44:07;;;;;;;;;;;3.00;98.20;3.50;101028.00;;;;342995;28;87659;-94
2023/02/08 00:44:19;;;;;;;;;;;2.90;98.20;3.60;101025.00;;;;345989;28;83454;-94
2023/02/08 00:44:31;;;;;;;;;;;2.90;98.20;3.70;101036.00;;;;342885;28;92063;-94
2023/02/08 00:44:42;;;;;;;;;;;2.90;98.20;3.60;101028.00;;;;343046;28;83237;-94
2023/02/08 00:44:54;;;;;;;;;;;2.90;98.20;3.60;101031.00;;;;344229;28;89553;-94
2023/02/08 00:45:07;;;;;;;;;;;2.90;98.20;3.50;101036.00;;;;344513;28;82705;-94
2023/02/08 00:45:19;;;;;;;;;;;2.90;98.30;3.50;101036.00;;;;344010;28;89883;-93
2023/02/08 00:45:31;;;;;;;;;;;2.90;98.30;3.60;101022.00;;;;342122;28;83268;-93
2023/02/08 00:45:43;;;;;;;;;;;2.90;98.30;3.60;101035.00;;;;342661;28;88616;-93
2023/02/08 00:45:55;;;;;;;;;;;2.90;98.30;3.60;101036.00;;;;345821;28;82635;-93
2023/02/08 00:46:08;;;;;;;;;;;2.90;98.40;3.50;101036.00;;;;344301;28;88189;-93
2023/02/08 00:46:20;;;;;;;;;;;2.90;98.40;3.50;101031.00;;;;344353;28;83578;-94
2023/02/08 00:46:32;;;;;;;;;;;2.90;98.30;3.50;101028.00;;;;342935;28;90201;-92
2023/02/08 00:46:44;;;;;;;;;;;2.90;98.30;3.40;101035.00;;;;343087;28;83508;-94
2023/02/08 00:46:55;;;;;;;;;;;2.90;98.40;3.50;101032.00;;;;345431;28;90218;-94
2023/02/08 00:47:07;;;;;;;;;;;2.90;98.40;3.50;101038.00;;;;344763;28;82504;-93
2023/02/08 00:47:19;;;;;;;;;;;2.90;98.40;3.40;101030.00;;;;344048;28;91229;-93
2023/02/08 00:47:31;;;;;;;;;;;2.80;98.50;3.40;101027.00;;;;345888;28;83564;-91
2023/02/08 00:47:43;;;;;;;;;;;2.80;98.50;3.40;101035.00;;;;342932;28;90052;-93
2023/02/08 00:47:55;;;;;;;;;;;2.80;98.50;3.50;101030.00;;;;345746;28;83291;-94
2023/02/08 00:48:07;;;;;;;;;;;2.80;98.50;3.50;101032.00;;;;345729;28;89071;-94
2023/02/08 00:48:18;;;;;;;;;;;2.80;98.50;3.40;101027.00;;;;344476;28;83397;-94
2023/02/08 00:48:30;;;;;;;;;;;2.80;98.60;3.40;101037.00;;;;345347;28;92660;-93
2023/02/08 00:48:42;;;;;;;;;;;2.80;98.60;3.30;101041.00;;;;343389;28;82418;-94
2023/02/08 00:48:54;;;;;;;;;;;2.80;98.70;3.30;101033.00;;;;344091;28;88710;-94
2023/02/08 00:49:06;;;;;;;;;;;2.80;98.70;3.40;101035.00;;;;344809;28;83289;-93
2023/02/08 00:49:17;;;;;;;;;;;2.80;98.70;3.40;101038.00;;;;344192;28;90251;-94
2023/02/08 00:49:29;;;;;;;;;;;2.80;98.70;3.40;101041.00;;;;346103;28;83346;-93
2023/02/08 00:49:41;;;;;;;;;;;2.80;98.70;3.50;101041.00;;;;343846;28;91853;-94
2023/02/08 00:49:53;;;;;;;;;;;2.80;98.70;3.40;101041.00;;;;343422;28;82463;-94
2023/02/08 00:50:05;;;;;;;;;;;2.80;98.70;3.30;101040.00;;;;344360;28;88993;-94
2023/02/08 00:50:16;;;;;;;;;;;2.80;98.80;3.40;101035.00;;;;344679;28;83240;-94
2023/02/08 00:50:28;;;;;;;;;;;2.70;98.70;3.30;101033.00;;;;345534;28;90102;-93
2023/02/08 00:50:40;;;;;;;;;;;2.80;98.80;3.40;101035.00;;;;344770;28;82450;-94
2023/02/08 00:51:12;;;;;;;;;;;2.70;98.80;3.30;101037.00;;;;344004;28;90901;-93
2023/02/08 00:51:24;;;;;;;;;;;2.70;98.90;3.40;101035.00;;;;344676;28;82637;-93
2023/02/08 00:51:36;;;;;;;;;;;2.70;98.80;3.30;101031.00;;;;344240;28;89057;-93
2023/02/08 00:51:48;;;;;;;;;;;2.70;98.90;3.30;101035.00;;;;344633;28;82497;-94
2023/02/08 00:51:59;;;;;;;;;;;2.70;99.00;3.40;101034.00;;;;345498;28;90338;-93
2023/02/08 00:52:11;;;;;;;;;;;2.70;98.90;3.40;101027.00;;;;346151;28;83380;-93
2023/02/08 00:52:23;;;;;;;;;;;2.70;98.90;3.40;101028.00;;;;343994;28;90598;-94
2023/02/08 00:52:35;;;;;;;;;;;2.70;98.90;3.30;101027.00;;;;344557;28;82559;-93
2023/02/08 00:52:47;;;;;;;;;;;2.70;99.00;3.40;101040.00;;;;343994;28;88915;-93
2023/02/08 00:52:59;;;;;;;;;;;2.70;98.90;3.40;101037.00;;;;343070;28;82687;-93
2023/02/08 00:53:11;;;;;;;;;;;2.70;98.90;3.40;101031.00;;;;342956;28;88427;-94
2023/02/08 00:53:23;;;;;;;;;;;2.70;98.80;3.30;101028.00;;;;344678;28;83570;-94
2023/02/08 00:53:36;;;;;;;;;;;2.70;98.90;3.30;101038.00;;;;342898;28;86602;-95
2023/02/08 00:53:47;;;;;;;;;;;2.70;98.90;3.40;101040.00;;;;342961;28;82509;-94
2023/02/08 00:53:59;;;;;;;;;;;2.70;98.90;3.40;101029.00;;;;345344;28;90250;-94
2023/02/08 00:54:15;;;;;;;;;;;2.70;99.00;3.30;101036.00;;;;345797;28;83519;-93
2023/02/08 00:54:27;;;;;;;;;;;2.70;99.00;3.40;101034.00;;;;344089;28;92611;-94
2023/02/08 00:54:40;;;;;;;;;;;2.70;99.00;3.40;101034.00;;;;344741;28;83358;-94
2023/02/08 00:54:52;;;;;;;;;;;2.70;99.10;3.50;101029.00;;;;345327;28;91060;-93
2023/02/08 00:55:04;;;;;;;;;;;2.70;99.00;3.50;101033.00;;;;344553;28;83448;-93
2023/02/08 00:55:16;;;;;;;;;;;2.70;99.00;3.40;101035.00;;;;344327;28;88185;-94
2023/02/08 00:55:28;;;;;;;;;;;2.70;99.00;3.40;101028.00;;;;344758;28;82182;-94
2023/02/08 00:55:39;;;;;;;;;;;2.70;99.10;3.40;101040.00;;;;344237;28;88392;-94
2023/02/08 00:55:52;;;;;;;;;;;2.70;99.10;3.40;101033.00;;;;345934;28;82465;-93
2023/02/08 00:56:05;;;;;;;;;;;2.70;99.00;3.50;101034.00;;;;345642;28;87854;-93
2023/02/08 00:56:17;;;;;;;;;;;2.70;99.00;3.40;101035.00;;;;345803;28;83510;-93
2023/02/08 00:56:28;;;;;;;;;;;2.70;99.00;3.40;101033.00;;;;342983;28;88706;-94
2023/02/08 00:56:40;;;;;;;;;;;2.70;99.10;3.50;101022.00;;;;345733;28;82587;-94
2023/02/08 00:56:52;;;;;;;;;;;2.70;99.10;3.40;101028.00;;;;345349;28;91300;-93
2023/02/08 00:57:04;;;;;;;;;;;2.70;99.10;3.30;101031.00;;;;344680;28;83330;-94
2023/02/08 00:57:15;;;;;;;;;;;2.70;99.10;3.30;101034.00;;;;342640;28;87195;-93
2023/02/08 00:57:27;;;;;;;;;;;2.70;99.20;3.30;101038.00;;;;342017;28;83225;-93
2023/02/08 00:57:39;;;;;;;;;;;2.70;99.20;3.30;101035.00;;;;341736;28;87970;-92
2023/02/08 00:57:51;;;;;;;;;;;2.60;99.20;3.30;101032.00;;;;342081;28;82579;-93
2023/02/08 00:58:03;;;;;;;;;;;2.60;99.20;3.20;101027.00;;;;343046;28;88677;-93
2023/02/08 00:58:15;;;;;;;;;;;2.60;99.30;3.20;101035.00;;;;346047;28;82584;-92
2023/02/08 00:58:26;;;;;;;;;;;2.70;99.40;3.30;101035.00;;;;344997;28;89060;-93
2023/02/08 00:58:38;;;;;;;;;;;2.60;99.40;3.30;101036.00;;;;344115;28;83138;-92
2023/02/08 00:58:50;;;;;;;;;;;2.60;99.40;3.40;101039.00;;;;344598;28;90537;-93
2023/02/08 00:59:02;;;;;;;;;;;2.60;99.40;3.40;101033.00;;;;345407;28;84026;-93
2023/02/08 00:59:14;;;;;;;;;;;2.60;99.40;3.40;101037.00;;;;344018;28;89088;-93
2023/02/08 00:59:26;;;;;;;;;;;2.60;99.40;3.40;101030.00;;;;345302;28;82195;-93
2023/02/08 00:59:38;;;;;;;;;;;2.70;99.40;3.30;101046.00;;;;343641;28;89527;-93
2023/02/08 00:59:50;;;;;;;;;;;2.70;99.40;3.30;101038.00;;;;342337;28;82527;-93
2023/02/08 01:00:03;;;;;;;;;;;2.70;99.40;3.30;101039.00;;;;343289;28;91126;-93
2023/02/08 01:00:24;;;;;;;;;;;2.60;99.40;3.30;101031.00;;;;345736;28;82541;-93
2023/02/08 01:00:36;;;;;;;;;;;2.60;99.40;3.30;101040.00;;;;344219;28;87693;-93